createdAt,value
2018-08-19T00:01:46.848Z,19.62
2018-08-19T00:04:15.480Z,19.66
2018-08-19T00:06:44.289Z,19.63
2018-08-19T00:09:16.180Z,19.65
2018-08-19T00:11:46.162Z,19.62
2018-08-19T00:14:27.372Z,19.63
2018-08-19T00:16:57.939Z,19.68
2018-08-19T00:19:27.051Z,19.78
2018-08-19T00:21:56.239Z,19.83
2018-08-19T00:24:25.204Z,19.94
2018-08-19T00:27:04.386Z,19.97
2018-08-19T00:29:36.924Z,19.98
2018-08-19T00:32:06.065Z,20.00
2018-08-19T00:34:35.350Z,20.01
2018-08-19T00:37:06.033Z,19.96
2018-08-19T00:39:35.128Z,19.99
2018-08-19T00:42:04.804Z,19.96
2018-08-19T00:44:34.117Z,19.92
2018-08-19T00:47:02.744Z,19.90
2018-08-19T00:49:31.654Z,19.80
2018-08-19T00:52:01.446Z,19.78
2018-08-19T00:54:31.229Z,19.77
2018-08-19T00:57:00.783Z,19.79
2018-08-19T00:59:30.573Z,19.77
2018-08-19T01:01:59.307Z,19.77
2018-08-19T01:04:28.396Z,19.80
2018-08-19T01:06:58.052Z,19.78
2018-08-19T01:09:28.710Z,19.77
2018-08-19T01:11:57.363Z,19.76
2018-08-19T01:14:26.268Z,19.70
2018-08-19T01:16:54.864Z,19.66
2018-08-19T01:19:23.541Z,19.57
2018-08-19T01:21:53.776Z,19.56
2018-08-19T01:24:22.794Z,19.51
2018-08-19T01:26:51.343Z,19.52
2018-08-19T01:29:33.614Z,19.57
2018-08-19T01:32:09.213Z,19.56
2018-08-19T01:34:38.677Z,19.59
2018-08-19T01:37:07.695Z,19.63
2018-08-19T01:39:37.984Z,19.53
2018-08-19T01:44:56.678Z,19.38
2018-08-19T01:47:25.224Z,19.34
2018-08-19T01:50:05.197Z,19.36
2018-08-19T01:52:33.747Z,19.37
2018-08-19T01:55:02.459Z,19.34
2018-08-19T01:57:36.090Z,19.33
2018-08-19T02:00:04.744Z,19.25
2018-08-19T02:02:39.568Z,19.23
2018-08-19T02:05:08.129Z,19.26
2018-08-19T02:07:37.001Z,19.26
2018-08-19T02:10:08.375Z,19.18
2018-08-19T02:12:39.888Z,19.08
2018-08-19T02:15:09.636Z,19.04
2018-08-19T02:17:43.275Z,19.02
2018-08-19T02:20:11.867Z,19.01
2018-08-19T02:22:42.575Z,18.97
2018-08-19T02:25:11.484Z,18.90
2018-08-19T02:27:40.387Z,18.81
2018-08-19T02:30:09.092Z,18.77
2018-08-19T02:32:37.726Z,18.66
2018-08-19T02:35:06.673Z,18.58
2018-08-19T02:37:35.250Z,18.57
2018-08-19T02:40:03.888Z,18.61
2018-08-19T02:42:33.229Z,18.62
2018-08-19T02:45:05.221Z,18.63
2018-08-19T02:47:34.871Z,18.50
2018-08-19T02:50:03.655Z,18.36
2018-08-19T02:52:33.613Z,18.31
2018-08-19T02:55:03.668Z,18.38
2018-08-19T02:57:32.998Z,18.43
2018-08-19T03:00:02.646Z,18.47
2018-08-19T03:02:32.938Z,18.51
2018-08-19T03:05:03.305Z,18.51
2018-08-19T03:07:32.762Z,18.53
2018-08-19T03:10:08.561Z,18.48
2018-08-19T03:12:37.253Z,18.38
2018-08-19T03:15:07.378Z,18.38
2018-08-19T03:17:36.204Z,18.39
2018-08-19T03:20:06.802Z,18.36
2018-08-19T03:22:35.732Z,18.30
2018-08-19T03:25:04.363Z,18.35
2018-08-19T03:27:33.841Z,18.40
2018-08-19T03:30:04.627Z,18.43
2018-08-19T03:32:33.230Z,18.43
2018-08-19T03:35:07.510Z,18.34
2018-08-19T03:37:37.487Z,18.25
2018-08-19T03:40:07.408Z,18.21
2018-08-19T03:42:35.982Z,18.15
2018-08-19T03:45:09.836Z,18.13
2018-08-19T03:47:38.397Z,18.07
2018-08-19T03:50:12.028Z,18.04
2018-08-19T03:52:43.495Z,17.99
2018-08-19T03:55:20.143Z,17.94
2018-08-19T03:57:49.260Z,18.00
2018-08-19T04:00:18.865Z,18.12
2018-08-19T04:02:48.319Z,18.20
2018-08-19T04:05:16.972Z,18.22
2018-08-19T04:07:45.507Z,18.23
2018-08-19T04:10:17.127Z,18.22
2018-08-19T04:12:45.700Z,18.23
2018-08-19T04:15:15.292Z,18.28
2018-08-19T04:17:43.837Z,18.27
2018-08-19T04:20:12.425Z,18.28
2018-08-19T04:22:41.005Z,18.21
2018-08-19T04:25:09.684Z,18.19
2018-08-19T04:27:38.237Z,18.11
2018-08-19T04:30:06.847Z,18.04
2018-08-19T04:32:35.476Z,18.01
2018-08-19T04:35:04.104Z,17.98
2018-08-19T04:37:32.656Z,18.00
2018-08-19T04:40:01.205Z,18.05
2018-08-19T04:42:29.725Z,18.13
2018-08-19T04:44:58.393Z,18.22
2018-08-19T04:47:31.710Z,18.23
2018-08-19T04:50:00.302Z,18.20
2018-08-19T04:52:28.866Z,18.15
2018-08-19T04:54:57.560Z,18.13
2018-08-19T04:57:26.116Z,18.14
2018-08-19T04:59:54.704Z,18.12
2018-08-19T05:02:23.716Z,18.17
2018-08-19T05:04:52.291Z,18.12
2018-08-19T05:07:20.845Z,18.15
2018-08-19T05:09:49.740Z,18.23
2018-08-19T05:12:32.460Z,18.28
2018-08-19T05:15:01.006Z,18.27
2018-08-19T05:17:29.594Z,18.34
2018-08-19T05:20:16.089Z,18.46
2018-08-19T05:22:44.952Z,18.48
2018-08-19T05:25:13.616Z,18.48
2018-08-19T05:27:42.169Z,18.58
2018-08-19T05:30:10.776Z,18.70
2018-08-19T05:32:47.034Z,18.78
2018-08-19T05:35:15.600Z,18.86
2018-08-19T05:37:44.944Z,18.93
2018-08-19T05:40:13.504Z,18.96
2018-08-19T05:42:42.129Z,19.01
2018-08-19T05:45:11.035Z,19.13
2018-08-19T05:47:39.591Z,19.22
2018-08-19T05:50:08.245Z,19.29
2018-08-19T05:52:36.828Z,19.32
2018-08-19T05:55:05.439Z,19.40
2018-08-19T05:57:35.064Z,19.45
2018-08-19T06:00:08.899Z,19.54
2018-08-19T06:02:43.241Z,19.58
2018-08-19T06:05:12.091Z,19.63
2018-08-19T06:07:41.070Z,19.76
2018-08-19T06:10:10.458Z,19.84
2018-08-19T06:12:39.032Z,19.97
2018-08-19T06:15:07.621Z,20.07
2018-08-19T06:17:36.276Z,20.17
2018-08-19T06:20:05.274Z,20.27
2018-08-19T06:22:39.070Z,20.41
2018-08-19T06:25:07.770Z,20.55
2018-08-19T06:27:50.820Z,20.65
2018-08-19T06:30:20.088Z,20.80
2018-08-19T06:32:48.692Z,20.93
2018-08-19T06:35:17.365Z,21.08
2018-08-19T06:37:46.102Z,21.23
2018-08-19T06:40:17.687Z,21.38
2018-08-19T06:42:46.385Z,21.55
2018-08-19T06:45:15.852Z,21.72
2018-08-19T06:47:44.776Z,21.85
2018-08-19T06:50:24.403Z,22.01
2018-08-19T06:52:53.813Z,22.16
2018-08-19T06:55:22.712Z,22.31
2018-08-19T06:57:51.319Z,22.45
2018-08-19T07:00:34.205Z,22.64
2018-08-19T07:03:04.508Z,22.82
2018-08-19T07:05:33.958Z,22.99
2018-08-19T07:08:02.812Z,23.12
2018-08-19T07:10:37.364Z,23.28
2018-08-19T07:13:14.810Z,23.46
2018-08-19T07:15:44.444Z,23.63
2018-08-19T07:21:15.372Z,23.99
2018-08-19T07:23:44.142Z,24.11
2018-08-19T07:26:12.649Z,24.24
2018-08-19T07:28:41.216Z,24.37
2018-08-19T07:31:09.848Z,24.55
2018-08-19T07:33:38.393Z,24.67
2018-08-19T07:36:06.950Z,24.79
2018-08-19T07:38:35.502Z,24.92
2018-08-19T07:41:04.233Z,25.04
2018-08-19T07:43:32.908Z,25.18
2018-08-19T07:46:01.471Z,25.30
2018-08-19T07:48:30.081Z,25.37
2018-08-19T07:50:59.430Z,25.48
2018-08-19T07:53:27.988Z,25.58
2018-08-19T07:55:56.570Z,25.69
2018-08-19T07:58:36.113Z,25.73
2018-08-19T08:01:04.734Z,25.89
2018-08-19T08:03:33.415Z,26.02
2018-08-19T08:06:02.208Z,26.02
2018-08-19T08:08:30.968Z,26.16
2018-08-19T08:10:59.598Z,26.32
2018-08-19T08:13:28.234Z,26.48
2018-08-19T08:15:57.890Z,26.58
2018-08-19T08:18:26.564Z,26.67
2018-08-19T08:21:04.638Z,26.80
2018-08-19T08:23:33.348Z,26.95
2018-08-19T08:26:01.952Z,27.05
2018-08-19T08:28:30.520Z,27.13
2018-08-19T08:30:59.124Z,27.17
2018-08-19T08:33:27.788Z,27.30
2018-08-19T08:35:57.712Z,27.40
2018-08-19T08:38:26.485Z,27.59
2018-08-19T08:40:55.635Z,27.75
2018-08-19T08:43:24.362Z,27.92
2018-08-19T08:45:56.032Z,28.06
2018-08-19T08:48:24.639Z,28.13
2018-08-19T08:50:53.420Z,28.29
2018-08-19T08:53:22.151Z,28.27
2018-08-19T08:55:50.840Z,28.39
2018-08-19T08:58:19.432Z,28.23
2018-08-19T09:00:48.051Z,28.47
2018-08-19T09:03:17.550Z,28.51
2018-08-19T09:05:46.116Z,28.58
2018-08-19T09:08:14.745Z,28.72
2018-08-19T09:10:43.305Z,28.87
2018-08-19T09:13:12.662Z,28.85
2018-08-19T09:15:41.205Z,29.07
2018-08-19T09:18:09.790Z,29.20
2018-08-19T09:20:39.076Z,29.37
2018-08-19T09:23:08.982Z,29.56
2018-08-19T09:25:37.452Z,29.67
2018-08-19T09:28:06.036Z,29.82
2018-08-19T09:30:40.185Z,29.96
2018-08-19T09:33:09.355Z,30.06
2018-08-19T09:35:39.160Z,30.18
2018-08-19T09:38:21.419Z,30.28
2018-08-19T09:40:50.247Z,30.32
2018-08-19T09:43:19.065Z,30.13
2018-08-19T09:45:48.201Z,30.25
2018-08-19T09:48:17.197Z,30.57
2018-08-19T09:50:46.176Z,30.51
2018-08-19T09:53:14.747Z,30.25
2018-08-19T09:55:47.818Z,30.27
2018-08-19T09:58:22.293Z,30.39
2018-08-19T10:00:56.372Z,30.52
2018-08-19T10:03:25.989Z,30.78
2018-08-19T10:05:54.563Z,30.85
2018-08-19T10:08:24.598Z,31.16
2018-08-19T10:10:53.264Z,31.32
2018-08-19T10:13:21.891Z,31.34
2018-08-19T10:15:50.534Z,31.19
2018-08-19T10:18:19.623Z,31.39
2018-08-19T10:20:48.224Z,31.30
2018-08-19T10:23:16.906Z,31.08
2018-08-19T10:25:45.493Z,31.40
2018-08-19T10:28:14.141Z,31.48
2018-08-19T10:30:47.999Z,30.57
2018-08-19T10:33:17.218Z,30.91
2018-08-19T10:35:46.031Z,31.10
2018-08-19T10:38:16.385Z,31.49
2018-08-19T10:40:52.057Z,31.77
2018-08-19T10:43:20.811Z,31.83
2018-08-19T10:45:49.411Z,31.62
2018-08-19T10:48:18.012Z,32.03
2018-08-19T10:50:46.735Z,32.37
2018-08-19T10:53:20.702Z,32.46
2018-08-19T10:55:49.379Z,32.02
2018-08-19T10:58:18.077Z,32.22
2018-08-19T11:00:46.880Z,32.08
2018-08-19T11:03:18.592Z,32.22
2018-08-19T11:05:49.834Z,32.34
2018-08-19T11:08:18.822Z,32.36
2018-08-19T11:10:47.763Z,32.53
2018-08-19T11:13:19.618Z,32.63
2018-08-19T11:15:56.846Z,32.86
2018-08-19T11:18:29.628Z,32.91
2018-08-19T11:21:15.441Z,32.99
2018-08-19T11:23:46.859Z,33.04
2018-08-19T11:26:29.678Z,32.84
2018-08-19T11:28:59.315Z,32.90
2018-08-19T11:31:34.342Z,33.04
2018-08-19T11:34:05.279Z,33.22
2018-08-19T11:36:39.472Z,33.33
2018-08-19T11:39:10.426Z,32.75
2018-08-19T11:41:39.037Z,32.70
2018-08-19T11:44:09.303Z,32.72
2018-08-19T11:46:38.042Z,32.64
2018-08-19T11:49:15.034Z,32.80
2018-08-19T11:51:59.255Z,33.01
2018-08-19T11:54:28.570Z,33.07
2018-08-19T11:57:16.683Z,33.30
2018-08-19T11:59:46.166Z,33.52
2018-08-19T12:02:17.989Z,33.77
2018-08-19T12:04:47.047Z,33.88
2018-08-19T12:07:15.747Z,33.85
2018-08-19T12:10:07.069Z,33.90
2018-08-19T12:12:45.837Z,34.04
2018-08-19T12:15:21.093Z,34.20
2018-08-19T12:17:49.651Z,34.26
2018-08-19T12:20:23.199Z,34.52
2018-08-19T12:22:52.007Z,34.64
2018-08-19T12:25:20.647Z,34.42
2018-08-19T12:27:49.360Z,34.29
2018-08-19T12:30:18.117Z,33.96
2018-08-19T12:32:46.726Z,34.11
2018-08-19T12:35:15.568Z,33.91
2018-08-19T12:37:44.279Z,34.01
2018-08-19T12:40:13.011Z,33.88
2018-08-19T12:42:46.735Z,33.86
2018-08-19T12:45:15.374Z,34.21
2018-08-19T12:47:43.948Z,34.49
2018-08-19T12:50:14.519Z,33.91
2018-08-19T12:52:43.198Z,33.53
2018-08-19T12:55:14.457Z,33.94
2018-08-19T12:57:43.721Z,33.96
2018-08-19T13:00:16.856Z,34.16
2018-08-19T13:49:54.272Z,35.33
2018-08-19T13:52:22.827Z,35.07
2018-08-19T13:55:01.646Z,35.23
2018-08-19T13:57:30.463Z,35.07
2018-08-19T13:59:59.389Z,34.91
2018-08-19T14:02:28.091Z,34.56
2018-08-19T14:04:56.640Z,34.58
2018-08-19T14:07:30.861Z,34.58
2018-08-19T14:09:59.488Z,33.99
2018-08-19T14:12:28.155Z,34.04
2018-08-19T14:14:56.745Z,34.30
2018-08-19T14:17:25.337Z,33.72
2018-08-19T14:19:54.082Z,33.85
2018-08-19T14:22:22.642Z,34.19
2018-08-19T14:24:51.556Z,34.34
2018-08-19T14:27:20.184Z,34.52
2018-08-19T14:29:48.742Z,34.77
2018-08-19T14:32:29.812Z,34.67
2018-08-19T14:34:59.915Z,34.99
2018-08-19T14:37:28.859Z,34.95
2018-08-19T14:39:58.546Z,34.97
2018-08-19T14:42:27.208Z,34.80
2018-08-19T14:44:56.821Z,34.58
2018-08-19T14:47:25.925Z,33.87
2018-08-19T14:49:54.877Z,33.42
2018-08-19T14:52:28.107Z,33.23
2018-08-19T14:54:56.745Z,33.25
2018-08-19T14:57:25.938Z,33.18
2018-08-19T14:59:54.553Z,33.06
2018-08-19T15:02:23.215Z,32.92
2018-08-19T15:04:51.875Z,33.01
2018-08-19T15:10:10.973Z,33.26
2018-08-19T15:12:39.458Z,33.29
2018-08-19T15:15:08.085Z,33.09
2018-08-19T15:17:36.637Z,32.96
2018-08-19T15:20:05.274Z,32.90
2018-08-19T15:22:33.859Z,32.85
2018-08-19T15:25:02.446Z,32.73
2018-08-19T15:27:34.254Z,32.50
2018-08-19T15:30:02.866Z,32.51
2018-08-19T15:32:31.851Z,32.42
2018-08-19T15:35:00.267Z,32.35
2018-08-19T15:37:28.809Z,32.12
2018-08-19T15:39:57.375Z,31.83
2018-08-19T15:42:25.958Z,31.62
2018-08-19T15:44:54.504Z,31.51
2018-08-19T15:47:23.058Z,31.25
2018-08-19T15:50:03.039Z,30.76
2018-08-19T15:52:31.704Z,30.52
2018-08-19T15:55:00.655Z,30.27
2018-08-19T15:57:29.349Z,30.27
2018-08-19T15:59:57.925Z,30.39
2018-08-19T16:02:26.515Z,30.52
2018-08-19T16:04:55.972Z,30.61
2018-08-19T16:07:24.636Z,30.64
2018-08-19T16:09:53.243Z,30.49
2018-08-19T16:12:21.955Z,30.31
2018-08-19T16:14:50.416Z,30.19
2018-08-19T16:23:15.292Z,30.77
2018-08-19T16:25:43.854Z,31.05
2018-08-19T16:28:12.454Z,31.17
2018-08-19T16:30:41.082Z,31.27
2018-08-19T16:33:09.689Z,31.30
2018-08-19T16:35:39.589Z,31.38
2018-08-19T16:38:08.161Z,31.21
2018-08-19T16:40:36.773Z,31.28
2018-08-19T16:43:05.514Z,31.06
2018-08-19T16:45:34.220Z,31.15
2018-08-19T16:48:02.885Z,31.11
2018-08-19T16:50:31.734Z,31.26
2018-08-19T16:53:00.176Z,31.31
2018-08-19T16:55:28.750Z,31.17
2018-08-19T16:57:57.401Z,31.20
2018-08-19T17:00:26.023Z,31.02
2018-08-19T17:02:54.962Z,31.04
2018-08-19T17:05:30.733Z,31.01
2018-08-19T17:07:59.300Z,30.82
2018-08-19T17:10:29.517Z,30.45
2018-08-19T17:12:58.654Z,29.95
2018-08-19T17:15:27.563Z,29.53
2018-08-19T17:17:56.163Z,29.15
2018-08-19T17:20:24.904Z,28.76
2018-08-19T17:22:53.445Z,28.29
2018-08-19T17:25:22.015Z,27.92
2018-08-19T17:27:50.572Z,27.63
2018-08-19T17:30:19.294Z,27.44
2018-08-19T17:32:55.627Z,27.30
2018-08-19T17:35:24.229Z,27.14
2018-08-19T17:37:54.084Z,27.06
2018-08-19T17:40:22.653Z,27.00
2018-08-19T17:42:51.249Z,26.85
2018-08-19T17:45:19.842Z,26.68
2018-08-19T17:47:48.422Z,26.59
2018-08-19T17:50:21.180Z,26.57
2018-08-19T17:52:49.759Z,26.56
2018-08-19T17:55:18.360Z,26.52
2018-08-19T17:57:46.921Z,26.48
2018-08-19T18:00:15.645Z,26.49
2018-08-19T18:02:44.532Z,26.45
2018-08-19T18:05:14.542Z,26.34
2018-08-19T18:07:43.223Z,26.21
2018-08-19T18:10:12.913Z,26.15
2018-08-19T18:12:41.475Z,26.06
2018-08-19T18:15:11.058Z,25.93
2018-08-19T18:17:40.437Z,25.83
2018-08-19T18:20:41.044Z,25.54
2018-08-19T18:23:15.615Z,25.36
2018-08-19T18:25:47.819Z,25.43
2018-08-19T18:28:26.131Z,25.59
2018-08-19T18:31:01.055Z,25.53
2018-08-19T18:33:29.714Z,25.44
2018-08-19T18:35:58.376Z,25.39
2018-08-19T18:38:30.351Z,25.36
2018-08-19T18:40:59.024Z,25.26
2018-08-19T18:43:27.599Z,25.05
2018-08-19T18:45:56.279Z,24.90
2018-08-19T18:48:24.817Z,24.83
2018-08-19T18:50:55.384Z,24.78
2018-08-19T18:53:24.648Z,24.80
2018-08-19T18:55:53.278Z,24.77
2018-08-19T18:58:21.989Z,24.79
2018-08-19T19:00:54.707Z,24.78
2018-08-19T19:03:23.304Z,24.72
2018-08-19T19:05:51.869Z,24.59
2018-08-19T19:08:20.448Z,24.43
2018-08-19T19:10:56.889Z,24.37
2018-08-19T19:13:26.499Z,24.42
2018-08-19T19:15:55.172Z,24.51
2018-08-19T19:18:23.729Z,24.51
2018-08-19T19:20:57.668Z,24.46
2018-08-19T19:23:31.973Z,24.44
2018-08-19T19:26:01.447Z,24.45
2018-08-19T19:28:30.492Z,24.47
2018-08-19T19:31:04.641Z,24.46
2018-08-19T19:33:33.285Z,24.36
2018-08-19T19:36:07.307Z,24.31
2018-08-19T19:38:47.486Z,24.36
2018-08-19T19:41:16.194Z,24.26
2018-08-19T19:43:44.843Z,24.23
2018-08-19T19:46:13.393Z,24.07
2018-08-19T19:48:41.944Z,24.07
2018-08-19T19:51:11.469Z,23.98
2018-08-19T19:53:40.008Z,23.99
2018-08-19T19:56:13.436Z,23.98
2018-08-19T19:58:43.536Z,23.97
2018-08-19T20:01:12.100Z,23.90
2018-08-19T20:03:45.911Z,23.79
2018-08-19T20:06:14.607Z,23.75
2018-08-19T20:08:43.136Z,23.68
2018-08-19T20:11:28.627Z,23.60
2018-08-19T20:13:59.603Z,23.49
2018-08-19T20:16:28.176Z,23.48
2018-08-19T20:18:56.769Z,23.51
2018-08-19T20:21:26.582Z,23.49
2018-08-19T20:23:58.148Z,23.51
2018-08-19T20:26:27.480Z,23.52
2018-08-19T20:28:57.251Z,23.37
2018-08-19T20:31:25.859Z,23.31
2018-08-19T20:33:54.617Z,23.28
2018-08-19T20:36:23.216Z,23.29
2018-08-19T20:38:52.448Z,23.26
2018-08-19T20:41:21.252Z,23.21
2018-08-19T20:43:49.871Z,23.21
2018-08-19T20:46:18.558Z,23.18
2018-08-19T20:48:47.966Z,23.06
2018-08-19T20:51:16.650Z,22.92
2018-08-19T20:53:45.201Z,22.77
2018-08-19T20:56:13.784Z,22.64
2018-08-19T20:58:42.368Z,22.61
2018-08-19T21:01:17.351Z,22.67
2018-08-19T21:03:46.433Z,22.70
2018-08-19T21:06:15.037Z,22.65
2018-08-19T21:08:43.613Z,22.65
2018-08-19T21:11:12.537Z,22.66
2018-08-19T21:13:41.175Z,22.56
2018-08-19T21:16:09.754Z,22.43
2018-08-19T21:18:38.441Z,22.25
2018-08-19T21:21:07.145Z,22.22
2018-08-19T21:23:35.700Z,22.29
2018-08-19T21:26:04.251Z,22.30
2018-08-19T21:28:32.901Z,22.33
2018-08-19T21:31:01.509Z,22.34
2018-08-19T21:33:30.110Z,22.35
2018-08-19T21:35:58.749Z,22.27
2018-08-19T21:38:27.495Z,22.17
2018-08-19T21:40:57.397Z,22.13
2018-08-19T21:43:28.654Z,22.03
2018-08-19T21:45:58.451Z,22.07
2018-08-19T21:48:27.882Z,22.08
2018-08-19T21:50:56.480Z,22.11
2018-08-19T21:53:25.055Z,22.19
2018-08-19T21:55:53.924Z,22.21
2018-08-19T21:58:22.603Z,22.17
2018-08-19T22:01:00.798Z,22.18
2018-08-19T22:03:34.757Z,22.11
2018-08-19T22:06:06.971Z,22.14
2018-08-19T22:08:35.631Z,22.16
2018-08-19T22:11:04.284Z,22.16
2018-08-19T22:13:32.864Z,22.20
2018-08-19T22:16:01.463Z,22.22
2018-08-19T22:21:32.563Z,22.21
2018-08-19T22:24:01.143Z,22.22
2018-08-19T22:26:29.711Z,22.15
2018-08-19T22:29:11.473Z,22.14
2018-08-19T22:31:40.146Z,22.02
2018-08-19T22:34:08.699Z,21.99
2018-08-19T22:36:37.372Z,21.97
2018-08-19T22:39:09.294Z,21.96
2018-08-19T22:41:37.947Z,21.95
2018-08-19T22:44:06.551Z,21.87
2018-08-19T22:46:35.149Z,21.89
2018-08-19T22:49:03.967Z,21.92
2018-08-19T22:51:33.727Z,21.95
2018-08-19T22:54:02.299Z,21.95
2018-08-19T22:56:30.908Z,21.92
2018-08-19T22:58:59.486Z,21.85
2018-08-19T23:01:33.391Z,21.77
2018-08-19T23:04:03.050Z,21.72
2018-08-19T23:06:32.303Z,21.71
2018-08-19T23:09:01.296Z,21.63
2018-08-19T23:11:35.939Z,21.64
2018-08-19T23:14:16.004Z,21.57
2018-08-19T23:16:44.697Z,21.56
2018-08-19T23:19:13.448Z,21.54
2018-08-19T23:21:42.034Z,21.60
2018-08-19T23:24:10.623Z,21.64
2018-08-19T23:26:39.229Z,21.61
2018-08-19T23:29:07.886Z,21.60
2018-08-19T23:31:36.440Z,21.57
2018-08-19T23:34:05.007Z,21.56
2018-08-19T23:36:33.592Z,21.58
2018-08-19T23:39:02.245Z,21.58
2018-08-19T23:41:30.858Z,21.59
2018-08-19T23:43:59.436Z,21.60
2018-08-19T23:46:28.159Z,21.62
2018-08-19T23:48:56.756Z,21.60
2018-08-19T23:51:29.294Z,21.57
2018-08-19T23:53:59.063Z,21.55
2018-08-19T23:56:28.007Z,21.49
2018-08-19T23:58:56.863Z,21.44
